createdAt,value
2022-08-01T00:00:38.120Z,6.93
2022-08-01T00:03:05.201Z,7.97
2022-08-01T00:05:32.625Z,7.07
2022-08-01T00:07:59.872Z,6.82
2022-08-01T00:12:54.124Z,7.75
2022-08-01T00:15:21.099Z,7.40
2022-08-01T00:17:48.018Z,7.20
2022-08-01T00:20:16.035Z,7.03
2022-08-01T00:22:43.017Z,6.97
2022-08-01T00:25:10.139Z,6.07
2022-08-01T00:27:37.537Z,6.60
2022-08-01T00:30:11.427Z,5.90
2022-08-01T00:32:42.414Z,6.35
2022-08-01T00:35:09.564Z,6.05
2022-08-01T00:37:36.560Z,5.38
2022-08-01T00:40:04.358Z,5.40
2022-08-01T00:42:31.332Z,5.45
2022-08-01T00:44:58.279Z,5.10
2022-08-01T00:47:25.236Z,4.32
2022-08-01T00:49:52.241Z,5.07
2022-08-01T00:52:19.422Z,4.63
2022-08-01T00:54:46.812Z,4.68
2022-08-01T00:57:15.099Z,4.47
2022-08-01T00:59:42.734Z,4.97
2022-08-01T01:02:15.786Z,5.75
2022-08-01T01:04:43.820Z,5.35
2022-08-01T01:07:36.116Z,6.18
2022-08-01T01:10:15.982Z,7.07
2022-08-01T01:12:57.241Z,8.10
2022-08-01T01:15:37.312Z,7.72
2022-08-01T01:18:23.424Z,8.05
2022-08-01T01:21:06.949Z,8.30
2022-08-01T01:23:52.537Z,8.00
2022-08-01T01:26:46.350Z,8.85
2022-08-01T01:29:27.821Z,8.75
2022-08-01T01:32:07.707Z,9.57
2022-08-01T01:34:38.781Z,11.50
2022-08-01T01:37:09.250Z,12.90
2022-08-01T01:39:37.488Z,12.25
2022-08-01T01:42:07.695Z,13.13
2022-08-01T01:44:36.620Z,13.02
2022-08-01T01:47:04.301Z,12.88
2022-08-01T01:49:33.825Z,13.13
2022-08-01T01:52:03.173Z,13.05
2022-08-01T01:54:35.559Z,12.75
2022-08-01T01:57:05.821Z,13.35
2022-08-01T01:59:35.945Z,11.65
2022-08-01T02:02:06.887Z,13.82
2022-08-01T02:04:37.407Z,12.95
2022-08-01T02:07:06.757Z,13.48
2022-08-01T02:09:36.687Z,11.82
2022-08-01T02:12:09.355Z,11.75
2022-08-01T02:14:41.125Z,13.02
2022-08-01T02:17:11.866Z,11.07
2022-08-01T02:19:39.287Z,11.15
2022-08-01T02:22:11.977Z,11.32
2022-08-01T02:24:45.791Z,11.00
2022-08-01T02:27:39.125Z,11.45
2022-08-01T02:30:09.533Z,12.20
2022-08-01T02:32:50.971Z,10.60
2022-08-01T02:36:32.203Z,10.32
2022-08-01T02:38:32.563Z,11.00
2022-08-01T02:41:09.702Z,11.95
2022-08-01T02:43:40.409Z,12.00
2022-08-01T02:46:13.052Z,12.38
2022-08-01T02:48:44.560Z,11.65
2022-08-01T02:51:13.514Z,11.90
2022-08-01T02:53:44.717Z,12.63
2022-08-01T02:56:14.308Z,11.48
2022-08-01T02:58:42.872Z,12.02
2022-08-01T03:01:11.325Z,11.88
2022-08-01T03:03:38.915Z,12.63
2022-08-01T03:06:06.851Z,10.48
2022-08-01T03:08:35.678Z,12.07
2022-08-01T03:11:04.412Z,11.75
2022-08-01T03:13:33.018Z,12.43
2022-08-01T03:16:02.436Z,11.25
2022-08-01T03:18:30.895Z,11.93
2022-08-01T03:21:00.320Z,11.23
2022-08-01T03:23:38.005Z,9.75
2022-08-01T03:26:07.010Z,10.65
2022-08-01T03:28:34.322Z,11.43
2022-08-01T03:33:30.445Z,12.05
2022-08-01T03:36:01.164Z,11.63
2022-08-01T03:38:31.435Z,11.18
2022-08-01T03:41:03.504Z,10.65
2022-08-01T03:43:37.635Z,12.45
2022-08-01T03:46:10.327Z,10.95
2022-08-01T03:48:43.381Z,10.52
2022-08-01T03:51:11.355Z,11.20
2022-08-01T03:53:41.185Z,10.70
2022-08-01T03:56:11.176Z,9.35
2022-08-01T03:58:41.375Z,10.00
2022-08-01T04:01:15.887Z,9.00
2022-08-01T04:03:44.430Z,9.32
2022-08-01T04:06:11.789Z,9.00
2022-08-01T04:08:40.089Z,8.95
2022-08-01T04:11:09.476Z,9.93
2022-08-01T04:13:36.729Z,9.98
2022-08-01T04:16:04.802Z,10.30
2022-08-01T04:23:28.515Z,10.10
2022-08-01T04:25:58.335Z,12.82
2022-08-01T04:28:26.429Z,10.75
2022-08-01T04:30:59.887Z,10.80
2022-08-01T04:33:30.951Z,10.40
2022-08-01T04:36:02.187Z,10.63
2022-08-01T04:38:31.583Z,11.52
2022-08-01T04:40:59.549Z,9.95
2022-08-01T04:43:37.923Z,10.02
2022-08-01T04:46:07.062Z,10.80
2022-08-01T04:48:37.708Z,10.70
2022-08-01T04:51:05.557Z,11.52
2022-08-01T04:53:33.420Z,10.48
2022-08-01T04:56:00.518Z,11.82
2022-08-01T04:58:27.424Z,10.43
2022-08-01T05:00:54.501Z,11.05
2022-08-01T05:03:21.463Z,11.57
2022-08-01T05:05:48.445Z,10.50
2022-08-01T05:08:15.411Z,10.93
2022-08-01T05:10:42.394Z,10.52
2022-08-01T05:13:15.063Z,10.18
2022-08-01T05:15:42.079Z,7.25
2022-08-01T05:18:12.188Z,8.07
2022-08-01T05:20:39.236Z,6.90
2022-08-01T05:23:06.615Z,7.72
2022-08-01T05:25:56.431Z,7.00
2022-08-01T05:28:25.166Z,7.32
2022-08-01T05:30:55.666Z,6.20
2022-08-01T05:33:22.809Z,6.45
2022-08-01T05:35:49.873Z,6.45
2022-08-01T05:38:17.057Z,5.80
2022-08-01T05:45:37.904Z,5.70
2022-08-01T05:48:05.135Z,5.97
2022-08-01T05:53:00.352Z,6.35
2022-08-01T05:55:27.284Z,6.35
2022-08-01T05:57:54.259Z,5.78
2022-08-01T06:00:21.561Z,6.93
2022-08-01T06:02:48.534Z,5.60
2022-08-01T06:05:16.508Z,6.00
2022-08-01T06:07:43.662Z,6.90
2022-08-01T06:10:10.921Z,5.85
2022-08-01T06:15:11.040Z,5.88
2022-08-01T06:17:38.017Z,5.65
2022-08-01T06:20:09.545Z,5.28
2022-08-01T06:22:36.530Z,5.28
2022-08-01T06:25:04.326Z,4.72
2022-08-01T06:27:31.310Z,4.97
2022-08-01T06:29:58.307Z,5.13
2022-08-01T06:32:26.507Z,4.57
2022-08-01T06:34:57.285Z,5.05
2022-08-01T06:37:24.524Z,5.00
2022-08-01T06:39:51.486Z,5.07
2022-08-01T06:42:18.856Z,5.35
2022-08-01T06:44:46.186Z,4.63
2022-08-01T06:54:34.495Z,5.47
2022-08-01T06:57:01.495Z,4.13
2022-08-01T06:59:28.459Z,5.50
2022-08-01T07:01:55.395Z,4.18
2022-08-01T07:04:22.341Z,5.38
2022-08-01T07:06:49.352Z,5.50
2022-08-01T07:09:16.334Z,5.47
2022-08-01T07:11:43.294Z,5.85
2022-08-01T07:14:10.348Z,5.05
2022-08-01T07:16:37.341Z,5.32
2022-08-01T07:19:04.391Z,5.30
2022-08-01T07:21:40.521Z,4.35
2022-08-01T07:24:13.855Z,4.88
2022-08-01T07:26:53.867Z,4.40
2022-08-01T07:29:23.895Z,3.88
2022-08-01T07:31:54.629Z,4.10
2022-08-01T07:34:22.640Z,4.53
2022-08-01T07:36:49.896Z,5.22
2022-08-01T07:44:30.767Z,5.45
2022-08-01T07:46:57.719Z,5.53
2022-08-01T07:49:24.720Z,4.53
2022-08-01T07:52:03.592Z,4.88
2022-08-01T07:54:34.233Z,5.10
2022-08-01T07:57:03.050Z,4.45
2022-08-01T07:59:30.078Z,3.70
2022-08-01T08:01:57.117Z,4.03
2022-08-01T08:04:24.126Z,3.67
2022-08-01T08:06:51.213Z,3.80
2022-08-01T08:09:18.142Z,4.18
2022-08-01T08:11:47.738Z,4.22
2022-08-01T08:14:16.574Z,4.13
2022-08-01T08:16:44.177Z,4.15
2022-08-01T08:19:11.498Z,4.07
2022-08-01T08:21:38.957Z,3.72
2022-08-01T08:24:26.925Z,2.70
2022-08-01T08:26:59.254Z,2.67
2022-08-01T08:29:27.353Z,1.90
2022-08-01T08:31:55.850Z,1.90
2022-08-01T08:34:24.954Z,2.10
2022-08-01T08:36:52.300Z,2.70
2022-08-01T08:39:20.164Z,1.85
2022-08-01T08:41:49.395Z,2.40
2022-08-01T08:44:18.666Z,2.00
2022-08-01T08:46:47.919Z,2.10
2022-08-01T08:49:21.697Z,1.63
2022-08-01T08:51:51.125Z,2.08
2022-08-01T08:54:29.054Z,1.90
2022-08-01T08:57:00.208Z,1.77
2022-08-01T08:59:29.036Z,1.50
2022-08-01T09:01:56.643Z,1.67
2022-08-01T09:04:26.291Z,1.63
2022-08-01T09:06:54.634Z,1.58
2022-08-01T09:09:21.708Z,1.73
2022-08-01T09:14:31.029Z,1.20
2022-08-01T09:17:08.575Z,1.00
2022-08-01T09:19:40.480Z,1.30
2022-08-01T09:22:13.511Z,0.90
2022-08-01T09:24:42.199Z,0.80
2022-08-01T09:27:22.029Z,1.00
2022-08-01T09:30:01.003Z,0.93
2022-08-01T09:32:38.748Z,0.90
2022-08-01T09:35:36.188Z,1.10
2022-08-01T09:38:24.757Z,1.13
2022-08-01T09:40:59.663Z,0.63
2022-08-01T09:43:28.766Z,0.80
2022-08-01T09:45:57.920Z,0.70
2022-08-01T09:48:28.639Z,0.90
2022-08-01T09:51:04.397Z,0.75
2022-08-01T09:53:52.063Z,0.93
2022-08-01T09:56:22.528Z,1.20
2022-08-01T09:59:00.586Z,1.30
2022-08-01T10:01:38.772Z,1.23
2022-08-01T10:04:13.915Z,1.40
2022-08-01T10:06:45.032Z,1.08
2022-08-01T10:09:14.641Z,1.23
2022-08-01T10:11:44.766Z,0.80
2022-08-01T10:14:18.102Z,1.00
2022-08-01T10:16:53.223Z,1.13
2022-08-01T10:19:33.698Z,0.80
2022-08-01T10:22:02.214Z,1.02
2022-08-01T10:24:31.115Z,0.90
2022-08-01T10:27:08.373Z,1.15
2022-08-01T10:29:59.219Z,0.87
2022-08-01T10:32:29.089Z,0.88
2022-08-01T10:34:57.617Z,0.90
2022-08-01T10:37:27.040Z,0.75
2022-08-01T10:40:13.968Z,0.70
2022-08-01T10:42:46.561Z,0.60
2022-08-01T10:45:15.605Z,1.35
2022-08-01T10:47:52.183Z,1.10
2022-08-01T10:50:51.522Z,1.13
2022-08-01T10:53:31.150Z,0.93
2022-08-01T10:56:11.073Z,0.55
2022-08-01T10:58:44.154Z,0.70
2022-08-01T11:01:33.218Z,0.50
2022-08-01T11:04:16.583Z,0.40
2022-08-01T11:07:06.355Z,0.50
2022-08-01T11:09:51.381Z,0.55
2022-08-01T11:12:24.574Z,0.45
2022-08-01T11:15:02.762Z,0.50
2022-08-01T11:17:42.873Z,0.70
2022-08-01T11:20:18.528Z,0.30
2022-08-01T11:23:02.073Z,0.65
2022-08-01T11:26:05.964Z,0.40
2022-08-01T11:28:32.487Z,0.65
2022-08-01T11:31:14.290Z,0.55
2022-08-01T11:33:46.953Z,0.77
2022-08-01T11:36:15.230Z,0.55
2022-08-01T11:38:46.986Z,0.47
2022-08-01T11:41:18.130Z,0.50
2022-08-01T11:44:06.875Z,0.88
2022-08-01T11:47:18.647Z,0.50
2022-08-01T11:49:56.043Z,0.43
2022-08-01T11:52:28.611Z,0.40
2022-08-01T11:55:16.695Z,0.57
2022-08-01T11:57:43.852Z,0.50
2022-08-01T12:00:17.831Z,0.30
2022-08-01T12:02:46.743Z,0.75
2022-08-01T12:05:17.586Z,0.50
2022-08-01T12:07:51.189Z,0.30
2022-08-01T12:10:20.602Z,0.50
2022-08-01T12:12:49.391Z,0.40
2022-08-01T12:15:17.166Z,0.43
2022-08-01T12:17:58.892Z,0.30
2022-08-01T12:20:32.442Z,0.20
2022-08-01T12:23:01.863Z,0.40
2022-08-01T12:25:29.636Z,0.40
2022-08-01T12:28:01.352Z,0.28
2022-08-01T12:30:29.493Z,0.43
2022-08-01T12:32:56.918Z,0.35
2022-08-01T12:35:26.789Z,0.45
2022-08-01T12:37:57.734Z,0.30
2022-08-01T12:40:33.231Z,0.38
2022-08-01T12:43:06.314Z,0.40
2022-08-01T12:45:56.447Z,0.40
2022-08-01T12:48:25.586Z,0.43
2022-08-01T12:50:53.835Z,0.60
2022-08-01T12:53:21.924Z,0.40
2022-08-01T12:55:59.183Z,0.32
2022-08-01T12:58:34.321Z,0.40
2022-08-01T13:01:10.252Z,0.40
2022-08-01T13:03:38.393Z,0.52
2022-08-01T13:06:17.197Z,0.60
2022-08-01T13:08:45.938Z,0.40
2022-08-01T13:11:15.577Z,0.40
2022-08-01T13:13:49.032Z,0.40
2022-08-01T13:16:27.754Z,0.55
2022-08-01T13:19:06.528Z,0.40
2022-08-01T13:21:52.151Z,0.47
2022-08-01T13:24:26.724Z,0.45
2022-08-01T13:27:04.042Z,0.47
2022-08-01T13:29:32.794Z,0.77
2022-08-01T13:32:01.318Z,0.60
2022-08-01T13:34:38.222Z,0.50
2022-08-01T13:37:05.176Z,0.60
2022-08-01T13:39:48.362Z,0.30
2022-08-01T13:42:19.365Z,0.40
2022-08-01T13:44:46.726Z,0.77
2022-08-01T13:47:15.887Z,0.68
2022-08-01T13:49:44.517Z,0.38
2022-08-01T13:52:11.610Z,0.40
2022-08-01T13:54:38.676Z,0.40
2022-08-01T13:57:05.822Z,0.30
2022-08-01T13:59:32.794Z,0.20
2022-08-01T14:04:26.840Z,0.40
2022-08-01T14:06:54.150Z,0.52
2022-08-01T14:09:24.667Z,0.52
2022-08-01T14:11:52.875Z,0.40
2022-08-01T14:14:19.893Z,0.40
2022-08-01T14:16:48.015Z,0.55
2022-08-01T14:21:46.277Z,1.00
2022-08-01T14:24:13.630Z,0.40
2022-08-01T14:26:40.602Z,0.40
2022-08-01T14:31:34.705Z,0.40
2022-08-01T14:34:02.371Z,0.40
2022-08-01T14:36:31.491Z,0.45
2022-08-01T14:39:00.750Z,0.50
2022-08-01T14:41:31.177Z,0.88
2022-08-01T14:43:59.529Z,0.82
2022-08-01T14:46:26.533Z,0.50
2022-08-01T14:48:53.618Z,0.40
2022-08-01T14:51:20.629Z,0.60
2022-08-01T14:56:20.335Z,0.60
2022-08-01T14:58:47.321Z,0.57
2022-08-01T15:01:15.990Z,0.70
2022-08-01T15:03:43.119Z,0.40
2022-08-01T15:06:12.245Z,0.40
2022-08-01T15:08:39.437Z,0.60
2022-08-01T15:11:06.797Z,0.52
2022-08-01T15:13:33.781Z,0.57
2022-08-01T15:18:29.446Z,0.50
2022-08-01T15:20:58.226Z,0.52
2022-08-01T15:23:25.285Z,0.70
2022-08-01T15:25:52.241Z,0.90
2022-08-01T15:30:47.332Z,0.40
2022-08-01T15:33:14.600Z,0.40
2022-08-01T15:35:41.646Z,0.40
2022-08-01T15:38:08.547Z,0.30
2022-08-01T15:43:03.547Z,0.40
2022-08-01T15:45:46.954Z,0.50
2022-08-01T15:48:15.014Z,0.50
2022-08-01T15:50:41.988Z,0.65
2022-08-01T15:55:38.317Z,0.82
2022-08-01T15:58:05.955Z,0.63
2022-08-01T16:00:36.036Z,0.43
2022-08-01T16:03:10.393Z,0.63
2022-08-01T16:05:42.924Z,0.40
2022-08-01T16:08:14.300Z,0.60
2022-08-01T16:10:41.563Z,0.50
2022-08-01T16:13:09.443Z,0.85
2022-08-01T16:15:40.082Z,0.57
2022-08-01T16:18:08.605Z,0.80
2022-08-01T16:20:38.176Z,0.60
2022-08-01T16:23:07.332Z,0.50
2022-08-01T16:28:01.826Z,0.80
2022-08-01T16:30:28.884Z,0.70
2022-08-01T16:33:00.098Z,0.60
2022-08-01T16:35:36.204Z,0.80
2022-08-01T16:38:05.063Z,0.50
2022-08-01T16:40:46.363Z,0.50
2022-08-01T16:43:19.138Z,0.75
2022-08-01T16:45:46.632Z,0.70
2022-08-01T16:48:20.948Z,0.60
2022-08-01T16:50:49.726Z,0.98
2022-08-01T16:53:20.711Z,0.63
2022-08-01T16:55:50.538Z,0.80
2022-08-01T16:58:21.765Z,0.70
2022-08-01T17:00:57.054Z,0.80
2022-08-01T17:03:46.823Z,0.70
2022-08-01T17:06:13.427Z,0.88
2022-08-01T17:08:46.359Z,1.38
2022-08-01T17:11:15.125Z,0.68
2022-08-01T17:13:42.828Z,0.57
2022-08-01T17:16:11.103Z,0.88
2022-08-01T17:18:38.233Z,0.60
2022-08-01T17:21:05.406Z,0.57
2022-08-01T17:23:32.456Z,0.70
2022-08-01T17:25:59.785Z,1.27
2022-08-01T17:28:27.028Z,1.02
2022-08-01T17:30:54.302Z,0.85
2022-08-01T17:33:21.348Z,0.85
2022-08-01T17:35:48.578Z,0.60
2022-08-01T17:38:15.787Z,0.82
2022-08-01T17:40:44.105Z,0.70
2022-08-01T17:45:50.748Z,1.15
2022-08-01T17:48:19.894Z,0.70
2022-08-01T17:50:49.050Z,0.50
2022-08-01T17:53:20.922Z,1.45
2022-08-01T17:55:55.930Z,1.10
2022-08-01T17:58:36.650Z,0.68
2022-08-01T18:01:13.870Z,0.50
2022-08-01T18:03:41.792Z,0.50
2022-08-01T18:06:10.521Z,0.98
2022-08-01T18:08:40.353Z,0.82
2022-08-01T18:11:08.202Z,0.63
2022-08-01T18:13:36.567Z,0.68
2022-08-01T18:16:09.113Z,1.10
2022-08-01T18:18:36.693Z,0.73
2022-08-01T18:21:04.109Z,0.85
2022-08-01T18:23:33.419Z,0.98
2022-08-01T18:26:02.438Z,1.95
2022-08-01T18:28:41.697Z,1.20
2022-08-01T18:31:14.172Z,0.75
2022-08-01T18:33:41.076Z,0.80
2022-08-01T18:36:09.776Z,1.02
2022-08-01T18:38:55.529Z,0.70
2022-08-01T18:41:23.423Z,0.68
2022-08-01T18:43:50.356Z,0.77
2022-08-01T18:46:17.277Z,0.60
2022-08-01T18:48:44.217Z,0.77
2022-08-01T18:51:11.574Z,0.55
2022-08-01T18:53:39.600Z,1.38
2022-08-01T18:56:11.997Z,0.90
2022-08-01T18:58:41.582Z,0.90
2022-08-01T19:01:09.280Z,0.77
2022-08-01T19:03:42.508Z,0.95
2022-08-01T19:06:10.090Z,0.98
2022-08-01T19:08:38.118Z,0.75
2022-08-01T19:11:06.090Z,0.77
2022-08-01T19:13:34.207Z,1.08
2022-08-01T19:16:01.377Z,1.13
2022-08-01T19:20:55.504Z,0.70
2022-08-01T19:23:41.385Z,0.57
2022-08-01T19:26:12.642Z,0.82
2022-08-01T19:28:51.113Z,0.93
2022-08-01T19:31:24.231Z,0.77
2022-08-01T19:33:52.385Z,0.68
2022-08-01T19:36:20.506Z,0.90
2022-08-01T19:38:48.028Z,1.25
2022-08-01T19:41:16.867Z,1.42
2022-08-01T19:43:46.749Z,1.38
2022-08-01T19:46:17.169Z,1.10
2022-08-01T19:48:48.539Z,1.08
2022-08-01T19:51:20.871Z,1.10
2022-08-01T19:53:55.465Z,0.90
2022-08-01T19:56:25.797Z,0.70
2022-08-01T19:58:58.870Z,0.70
2022-08-01T20:01:27.827Z,1.10
2022-08-01T20:03:55.967Z,0.95
2022-08-01T20:06:24.475Z,0.95
2022-08-01T20:08:52.252Z,0.98
2022-08-01T20:11:22.047Z,1.27
2022-08-01T20:13:50.767Z,1.65
2022-08-01T20:16:18.486Z,0.90
2022-08-01T20:18:45.686Z,0.80
2022-08-01T20:21:14.270Z,1.15
2022-08-01T20:23:44.537Z,0.98
2022-08-01T20:26:17.774Z,1.08
2022-08-01T20:28:49.066Z,1.15
2022-08-01T20:31:17.991Z,1.40
2022-08-01T20:33:47.809Z,1.10
2022-08-01T20:36:24.937Z,0.93
2022-08-01T20:38:54.738Z,1.50
2022-08-01T20:41:25.890Z,1.05
2022-08-01T20:43:55.168Z,1.38
2022-08-01T20:46:25.324Z,1.25
2022-08-01T20:48:57.631Z,1.00
2022-08-01T20:51:26.286Z,1.98
2022-08-01T20:53:54.638Z,1.77
2022-08-01T20:56:55.763Z,1.55
2022-08-01T20:59:55.079Z,1.27
2022-08-01T21:02:47.710Z,1.20
2022-08-01T21:05:42.388Z,0.93
2022-08-01T21:08:47.573Z,1.40
2022-08-01T21:11:21.388Z,1.20
2022-08-01T21:13:49.244Z,1.30
2022-08-01T21:16:25.196Z,1.27
2022-08-01T21:19:21.893Z,1.00
2022-08-01T21:21:55.037Z,1.23
2022-08-01T21:24:25.967Z,1.55
2022-08-01T21:26:54.949Z,1.10
2022-08-01T21:29:24.082Z,1.40
2022-08-01T21:32:11.387Z,1.20
2022-08-01T21:34:39.594Z,1.15
2022-08-01T21:37:10.183Z,1.30
2022-08-01T21:39:38.006Z,1.20
2022-08-01T21:42:08.447Z,1.40
2022-08-01T21:44:40.158Z,1.63
2022-08-01T21:47:11.752Z,1.38
2022-08-01T21:49:40.821Z,1.48
2022-08-01T21:52:15.283Z,1.63
2022-08-01T21:54:54.296Z,1.45
2022-08-01T21:57:51.412Z,1.58
2022-08-01T22:00:25.599Z,1.60
2022-08-01T22:03:17.807Z,1.67
2022-08-01T22:05:51.014Z,1.23
2022-08-01T22:08:34.240Z,1.15
2022-08-01T22:11:05.661Z,1.63
2022-08-01T22:13:34.832Z,1.88
2022-08-01T22:16:04.690Z,1.20
2022-08-01T22:18:32.668Z,1.58
2022-08-01T22:21:00.588Z,1.40
2022-08-01T22:23:28.336Z,1.33
2022-08-01T22:25:55.980Z,1.30
2022-08-01T22:28:23.805Z,1.42
2022-08-01T22:30:51.873Z,1.42
2022-08-01T22:33:19.344Z,1.63
2022-08-01T22:35:49.341Z,1.27
2022-08-01T22:38:22.346Z,1.25
2022-08-01T22:40:54.629Z,1.67
2022-08-01T22:43:33.655Z,1.42
2022-08-01T22:46:27.045Z,1.50
2022-08-01T22:49:12.079Z,1.10
2022-08-01T22:51:54.609Z,1.60
2022-08-01T22:54:43.582Z,1.30
2022-08-01T22:57:35.187Z,1.25
2022-08-01T23:00:07.832Z,1.60
2022-08-01T23:02:40.835Z,1.30
2022-08-01T23:05:12.038Z,1.60
2022-08-01T23:07:43.588Z,1.27
2022-08-01T23:10:10.578Z,1.13
2022-08-01T23:12:38.852Z,1.70
2022-08-01T23:15:08.083Z,1.58
2022-08-01T23:17:35.716Z,1.80
2022-08-01T23:20:06.401Z,1.30
2022-08-01T23:22:35.592Z,1.70
2022-08-01T23:25:06.698Z,1.08
2022-08-01T23:27:51.205Z,1.48
2022-08-01T23:30:31.829Z,1.27
2022-08-01T23:32:59.749Z,1.15
2022-08-01T23:35:27.137Z,1.45
2022-08-01T23:40:34.378Z,1.47
2022-08-01T23:43:03.176Z,1.33
2022-08-01T23:46:00.767Z,1.48
2022-08-01T23:48:18.057Z,1.52
2022-08-01T23:50:45.009Z,1.92
2022-08-01T23:53:12.814Z,1.50
2022-08-01T23:55:40.635Z,1.50
2022-08-01T23:58:10.517Z,1.50
